sensor_id;sensor_type;location;lat;lon;timestamp;P1;durP1;ratioP1;P2;durP2;ratioP2
14592;SDS011;7383;52.354;9.756;2023-09-19T00:02:00;1.20;;;1.10;;
14592;SDS011;7383;52.354;9.756;2023-09-19T00:04:31;1.40;;;1.40;;
14592;SDS011;7383;52.354;9.756;2023-09-19T00:06:58;1.42;;;1.33;;
14592;SDS011;7383;52.354;9.756;2023-09-19T00:09:27;1.40;;;1.30;;
14592;SDS011;7383;52.354;9.756;2023-09-19T00:11:53;1.17;;;1.17;;
14592;SDS011;7383;52.354;9.756;2023-09-19T00:14:20;1.20;;;1.15;;
14592;SDS011;7383;52.354;9.756;2023-09-19T00:16:49;1.45;;;1.35;;
14592;SDS011;7383;52.354;9.756;2023-09-19T00:19:16;1.23;;;1.23;;
14592;SDS011;7383;52.354;9.756;2023-09-19T00:21:43;1.70;;;1.50;;
14592;SDS011;7383;52.354;9.756;2023-09-19T00:24:10;1.27;;;1.27;;
14592;SDS011;7383;52.354;9.756;2023-09-19T00:26:37;1.40;;;1.30;;
14592;SDS011;7383;52.354;9.756;2023-09-19T00:29:04;1.60;;;1.50;;
14592;SDS011;7383;52.354;9.756;2023-09-19T00:31:33;1.40;;;1.10;;
14592;SDS011;7383;52.354;9.756;2023-09-19T00:34:02;1.85;;;1.65;;
14592;SDS011;7383;52.354;9.756;2023-09-19T00:36:30;1.90;;;1.80;;
14592;SDS011;7383;52.354;9.756;2023-09-19T00:39:00;1.95;;;1.85;;
14592;SDS011;7383;52.354;9.756;2023-09-19T00:41:27;1.90;;;1.80;;
14592;SDS011;7383;52.354;9.756;2023-09-19T00:43:55;1.80;;;1.70;;
14592;SDS011;7383;52.354;9.756;2023-09-19T00:46:21;1.77;;;1.60;;
14592;SDS011;7383;52.354;9.756;2023-09-19T00:48:48;1.70;;;1.60;;
14592;SDS011;7383;52.354;9.756;2023-09-19T00:51:15;1.60;;;1.50;;
14592;SDS011;7383;52.354;9.756;2023-09-19T00:53:44;1.90;;;1.80;;
14592;SDS011;7383;52.354;9.756;2023-09-19T00:56:13;2.08;;;1.88;;
14592;SDS011;7383;52.354;9.756;2023-09-19T00:58:43;1.98;;;1.70;;
14592;SDS011;7383;52.354;9.756;2023-09-19T01:01:11;2.70;;;1.77;;
14592;SDS011;7383;52.354;9.756;2023-09-19T01:03:39;1.85;;;1.75;;
14592;SDS011;7383;52.354;9.756;2023-09-19T01:06:06;2.60;;;1.80;;
14592;SDS011;7383;52.354;9.756;2023-09-19T01:08:33;2.13;;;1.92;;
14592;SDS011;7383;52.354;9.756;2023-09-19T01:11:01;1.80;;;1.70;;
14592;SDS011;7383;52.354;9.756;2023-09-19T01:13:38;1.73;;;1.63;;
14592;SDS011;7383;52.354;9.756;2023-09-19T01:16:15;2.15;;;1.83;;
14592;SDS011;7383;52.354;9.756;2023-09-19T01:18:52;2.00;;;1.90;;
14592;SDS011;7383;52.354;9.756;2023-09-19T01:21:27;2.20;;;2.00;;
14592;SDS011;7383;52.354;9.756;2023-09-19T01:24:10;2.10;;;1.90;;
14592;SDS011;7383;52.354;9.756;2023-09-19T01:27:14;2.70;;;2.28;;
14592;SDS011;7383;52.354;9.756;2023-09-19T01:32:32;2.13;;;1.92;;
14592;SDS011;7383;52.354;9.756;2023-09-19T01:34:59;2.33;;;1.95;;
14592;SDS011;7383;52.354;9.756;2023-09-19T01:37:29;2.28;;;2.15;;
14592;SDS011;7383;52.354;9.756;2023-09-19T01:39:57;1.88;;;1.77;;
14592;SDS011;7383;52.354;9.756;2023-09-19T01:42:37;2.20;;;2.05;;
14592;SDS011;7383;52.354;9.756;2023-09-19T01:45:12;3.10;;;2.53;;
14592;SDS011;7383;52.354;9.756;2023-09-19T01:47:46;2.30;;;2.20;;
14592;SDS011;7383;52.354;9.756;2023-09-19T01:50:20;2.65;;;2.45;;
14592;SDS011;7383;52.354;9.756;2023-09-19T01:52:57;2.92;;;2.65;;
14592;SDS011;7383;52.354;9.756;2023-09-19T01:55:29;3.58;;;2.58;;
14592;SDS011;7383;52.354;9.756;2023-09-19T01:58:04;2.70;;;2.50;;
14592;SDS011;7383;52.354;9.756;2023-09-19T02:00:36;2.53;;;2.42;;
14592;SDS011;7383;52.354;9.756;2023-09-19T02:03:06;2.45;;;2.25;;
14592;SDS011;7383;52.354;9.756;2023-09-19T02:05:33;2.60;;;2.40;;
14592;SDS011;7383;52.354;9.756;2023-09-19T02:07:59;2.33;;;2.15;;
14592;SDS011;7383;52.354;9.756;2023-09-19T02:10:26;2.95;;;2.55;;
14592;SDS011;7383;52.354;9.756;2023-09-19T02:12:53;2.40;;;2.20;;
14592;SDS011;7383;52.354;9.756;2023-09-19T02:15:19;2.53;;;2.33;;
14592;SDS011;7383;52.354;9.756;2023-09-19T02:17:48;2.67;;;2.47;;
14592;SDS011;7383;52.354;9.756;2023-09-19T02:20:15;3.95;;;2.58;;
14592;SDS011;7383;52.354;9.756;2023-09-19T02:22:42;3.22;;;2.75;;
14592;SDS011;7383;52.354;9.756;2023-09-19T02:25:09;2.90;;;2.60;;
14592;SDS011;7383;52.354;9.756;2023-09-19T02:27:38;2.53;;;2.33;;
14592;SDS011;7383;52.354;9.756;2023-09-19T02:30:05;2.50;;;2.30;;
14592;SDS011;7383;52.354;9.756;2023-09-19T02:32:32;3.00;;;2.60;;
14592;SDS011;7383;52.354;9.756;2023-09-19T02:35:05;3.22;;;2.83;;
14592;SDS011;7383;52.354;9.756;2023-09-19T02:37:33;2.60;;;2.40;;
14592;SDS011;7383;52.354;9.756;2023-09-19T02:40:00;3.78;;;2.85;;
14592;SDS011;7383;52.354;9.756;2023-09-19T02:42:26;3.13;;;2.63;;
14592;SDS011;7383;52.354;9.756;2023-09-19T02:44:53;3.08;;;2.63;;
14592;SDS011;7383;52.354;9.756;2023-09-19T02:47:19;2.78;;;2.58;;
14592;SDS011;7383;52.354;9.756;2023-09-19T02:49:46;2.65;;;2.45;;
14592;SDS011;7383;52.354;9.756;2023-09-19T02:52:13;4.55;;;3.10;;
14592;SDS011;7383;52.354;9.756;2023-09-19T02:54:40;2.58;;;2.47;;
14592;SDS011;7383;52.354;9.756;2023-09-19T02:57:07;5.65;;;3.20;;
14592;SDS011;7383;52.354;9.756;2023-09-19T02:59:33;3.15;;;2.95;;
14592;SDS011;7383;52.354;9.756;2023-09-19T03:02:02;3.20;;;3.00;;
14592;SDS011;7383;52.354;9.756;2023-09-19T03:04:29;3.80;;;2.70;;
14592;SDS011;7383;52.354;9.756;2023-09-19T03:06:56;2.83;;;2.63;;
14592;SDS011;7383;52.354;9.756;2023-09-19T03:09:26;2.70;;;2.50;;
14592;SDS011;7383;52.354;9.756;2023-09-19T03:11:53;3.25;;;2.97;;
14592;SDS011;7383;52.354;9.756;2023-09-19T03:14:20;2.80;;;2.60;;
14592;SDS011;7383;52.354;9.756;2023-09-19T03:16:48;2.60;;;2.40;;
14592;SDS011;7383;52.354;9.756;2023-09-19T03:19:15;2.83;;;2.63;;
14592;SDS011;7383;52.354;9.756;2023-09-19T03:21:42;3.30;;;2.70;;
14592;SDS011;7383;52.354;9.756;2023-09-19T03:24:08;2.60;;;2.40;;
14592;SDS011;7383;52.354;9.756;2023-09-19T03:26:39;2.47;;;2.22;;
14592;SDS011;7383;52.354;9.756;2023-09-19T03:29:06;4.50;;;2.70;;
14592;SDS011;7383;52.354;9.756;2023-09-19T03:31:33;2.53;;;2.33;;
14592;SDS011;7383;52.354;9.756;2023-09-19T03:34:01;2.55;;;2.30;;
14592;SDS011;7383;52.354;9.756;2023-09-19T03:36:28;2.40;;;2.20;;
14592;SDS011;7383;52.354;9.756;2023-09-19T03:38:55;2.47;;;2.28;;
14592;SDS011;7383;52.354;9.756;2023-09-19T03:41:21;2.20;;;2.10;;
14592;SDS011;7383;52.354;9.756;2023-09-19T03:43:49;2.40;;;2.20;;
14592;SDS011;7383;52.354;9.756;2023-09-19T03:46:16;3.08;;;2.13;;
14592;SDS011;7383;52.354;9.756;2023-09-19T03:48:42;2.80;;;2.22;;
14592;SDS011;7383;52.354;9.756;2023-09-19T03:51:09;2.58;;;2.00;;
14592;SDS011;7383;52.354;9.756;2023-09-19T03:53:35;2.30;;;2.10;;
14592;SDS011;7383;52.354;9.756;2023-09-19T03:56:02;2.22;;;2.13;;
14592;SDS011;7383;52.354;9.756;2023-09-19T03:58:28;2.40;;;2.20;;
14592;SDS011;7383;52.354;9.756;2023-09-19T04:00:56;3.45;;;2.05;;
14592;SDS011;7383;52.354;9.756;2023-09-19T04:03:23;3.92;;;2.25;;
14592;SDS011;7383;52.354;9.756;2023-09-19T04:05:59;2.75;;;2.15;;
14592;SDS011;7383;52.354;9.756;2023-09-19T04:08:26;4.43;;;2.45;;
14592;SDS011;7383;52.354;9.756;2023-09-19T04:10:52;3.10;;;2.00;;
14592;SDS011;7383;52.354;9.756;2023-09-19T04:13:19;2.17;;;1.98;;
14592;SDS011;7383;52.354;9.756;2023-09-19T04:15:45;1.70;;;1.60;;
14592;SDS011;7383;52.354;9.756;2023-09-19T04:18:13;2.78;;;2.00;;
14592;SDS011;7383;52.354;9.756;2023-09-19T04:20:39;2.40;;;2.17;;
14592;SDS011;7383;52.354;9.756;2023-09-19T04:23:06;2.17;;;1.90;;
14592;SDS011;7383;52.354;9.756;2023-09-19T04:25:33;2.90;;;2.10;;
14592;SDS011;7383;52.354;9.756;2023-09-19T04:27:59;3.33;;;2.15;;
14592;SDS011;7383;52.354;9.756;2023-09-19T04:30:26;2.30;;;2.10;;
14592;SDS011;7383;52.354;9.756;2023-09-19T04:32:52;4.05;;;2.38;;
14592;SDS011;7383;52.354;9.756;2023-09-19T04:35:20;3.50;;;2.20;;
14592;SDS011;7383;52.354;9.756;2023-09-19T04:37:47;2.80;;;2.20;;
14592;SDS011;7383;52.354;9.756;2023-09-19T04:40:14;3.10;;;2.40;;
14592;SDS011;7383;52.354;9.756;2023-09-19T04:42:42;3.03;;;2.40;;
14592;SDS011;7383;52.354;9.756;2023-09-19T04:45:09;2.20;;;2.00;;
14592;SDS011;7383;52.354;9.756;2023-09-19T04:47:36;2.67;;;2.10;;
14592;SDS011;7383;52.354;9.756;2023-09-19T04:50:04;3.17;;;2.20;;
14592;SDS011;7383;52.354;9.756;2023-09-19T04:52:34;2.15;;;1.90;;
14592;SDS011;7383;52.354;9.756;2023-09-19T04:55:01;2.40;;;2.20;;
14592;SDS011;7383;52.354;9.756;2023-09-19T04:57:28;2.38;;;2.17;;
14592;SDS011;7383;52.354;9.756;2023-09-19T04:59:54;2.80;;;2.60;;
14592;SDS011;7383;52.354;9.756;2023-09-19T05:02:21;4.15;;;3.00;;
14592;SDS011;7383;52.354;9.756;2023-09-19T05:04:47;4.40;;;2.90;;
14592;SDS011;7383;52.354;9.756;2023-09-19T05:07:14;3.55;;;2.97;;
14592;SDS011;7383;52.354;9.756;2023-09-19T05:09:42;3.35;;;3.00;;
14592;SDS011;7383;52.354;9.756;2023-09-19T05:12:08;3.63;;;2.97;;
14592;SDS011;7383;52.354;9.756;2023-09-19T05:14:35;4.18;;;3.55;;
14592;SDS011;7383;52.354;9.756;2023-09-19T05:17:02;3.67;;;3.38;;
14592;SDS011;7383;52.354;9.756;2023-09-19T05:19:30;3.75;;;3.28;;
14592;SDS011;7383;52.354;9.756;2023-09-19T05:21:56;4.07;;;3.65;;
14592;SDS011;7383;52.354;9.756;2023-09-19T05:24:23;4.43;;;3.35;;
14592;SDS011;7383;52.354;9.756;2023-09-19T05:26:52;3.53;;;3.30;;
14592;SDS011;7383;52.354;9.756;2023-09-19T05:29:20;3.47;;;3.17;;
14592;SDS011;7383;52.354;9.756;2023-09-19T05:31:47;4.45;;;3.60;;
14592;SDS011;7383;52.354;9.756;2023-09-19T05:34:14;4.05;;;3.30;;
14592;SDS011;7383;52.354;9.756;2023-09-19T05:36:41;3.58;;;3.28;;
14592;SDS011;7383;52.354;9.756;2023-09-19T05:39:08;4.03;;;3.63;;
14592;SDS011;7383;52.354;9.756;2023-09-19T05:41:35;3.70;;;3.40;;
14592;SDS011;7383;52.354;9.756;2023-09-19T05:44:06;4.13;;;3.72;;
14592;SDS011;7383;52.354;9.756;2023-09-19T05:46:33;4.70;;;3.60;;
14592;SDS011;7383;52.354;9.756;2023-09-19T05:49:00;3.80;;;3.47;;
14592;SDS011;7383;52.354;9.756;2023-09-19T05:51:26;4.00;;;3.60;;
14592;SDS011;7383;52.354;9.756;2023-09-19T05:53:53;4.10;;;3.70;;
14592;SDS011;7383;52.354;9.756;2023-09-19T05:56:20;3.70;;;3.40;;
14592;SDS011;7383;52.354;9.756;2023-09-19T05:58:46;3.70;;;3.40;;
14592;SDS011;7383;52.354;9.756;2023-09-19T06:01:14;5.15;;;3.47;;
14592;SDS011;7383;52.354;9.756;2023-09-19T06:03:40;3.70;;;3.40;;
14592;SDS011;7383;52.354;9.756;2023-09-19T06:06:07;3.92;;;3.30;;
14592;SDS011;7383;52.354;9.756;2023-09-19T06:08:34;4.10;;;3.70;;
14592;SDS011;7383;52.354;9.756;2023-09-19T06:11:00;4.40;;;3.40;;
14592;SDS011;7383;52.354;9.756;2023-09-19T06:13:27;4.88;;;3.55;;
14592;SDS011;7383;52.354;9.756;2023-09-19T06:15:54;4.63;;;3.30;;
14592;SDS011;7383;52.354;9.756;2023-09-19T06:18:22;3.65;;;3.00;;
14592;SDS011;7383;52.354;9.756;2023-09-19T06:20:51;3.47;;;3.17;;
14592;SDS011;7383;52.354;9.756;2023-09-19T06:23:20;3.85;;;3.55;;
14592;SDS011;7383;52.354;9.756;2023-09-19T06:25:47;4.15;;;3.50;;
14592;SDS011;7383;52.354;9.756;2023-09-19T06:28:14;4.90;;;3.15;;
14592;SDS011;7383;52.354;9.756;2023-09-19T06:30:43;3.70;;;3.28;;
14592;SDS011;7383;52.354;9.756;2023-09-19T06:33:10;3.60;;;3.30;;
14592;SDS011;7383;52.354;9.756;2023-09-19T06:35:39;3.80;;;3.20;;
14592;SDS011;7383;52.354;9.756;2023-09-19T06:38:06;3.65;;;3.30;;
14592;SDS011;7383;52.354;9.756;2023-09-19T06:40:33;5.03;;;3.45;;
14592;SDS011;7383;52.354;9.756;2023-09-19T06:43:00;3.42;;;3.13;;
14592;SDS011;7383;52.354;9.756;2023-09-19T06:45:28;5.30;;;3.35;;
14592;SDS011;7383;52.354;9.756;2023-09-19T06:47:57;3.17;;;2.78;;
14592;SDS011;7383;52.354;9.756;2023-09-19T06:50:25;4.15;;;2.80;;
14592;SDS011;7383;52.354;9.756;2023-09-19T06:52:53;3.25;;;2.92;;
14592;SDS011;7383;52.354;9.756;2023-09-19T06:55:22;5.90;;;3.20;;
14592;SDS011;7383;52.354;9.756;2023-09-19T06:57:50;4.53;;;3.00;;
14592;SDS011;7383;52.354;9.756;2023-09-19T07:00:19;2.95;;;2.60;;
14592;SDS011;7383;52.354;9.756;2023-09-19T07:02:54;4.57;;;2.83;;
14592;SDS011;7383;52.354;9.756;2023-09-19T07:05:21;4.70;;;2.70;;
14592;SDS011;7383;52.354;9.756;2023-09-19T07:07:47;3.72;;;2.63;;
14592;SDS011;7383;52.354;9.756;2023-09-19T07:10:15;4.28;;;2.20;;
14592;SDS011;7383;52.354;9.756;2023-09-19T07:12:43;3.45;;;2.20;;
14592;SDS011;7383;52.354;9.756;2023-09-19T07:15:09;4.88;;;2.47;;
14592;SDS011;7383;52.354;9.756;2023-09-19T07:17:36;4.50;;;2.17;;
14592;SDS011;7383;52.354;9.756;2023-09-19T07:20:03;2.83;;;2.10;;
14592;SDS011;7383;52.354;9.756;2023-09-19T07:22:33;3.42;;;2.00;;
14592;SDS011;7383;52.354;9.756;2023-09-19T07:25:02;4.22;;;2.08;;
14592;SDS011;7383;52.354;9.756;2023-09-19T07:27:31;3.28;;;2.22;;
14592;SDS011;7383;52.354;9.756;2023-09-19T07:29:57;5.25;;;2.10;;
14592;SDS011;7383;52.354;9.756;2023-09-19T07:32:24;2.45;;;1.90;;
14592;SDS011;7383;52.354;9.756;2023-09-19T07:34:50;5.70;;;2.63;;
14592;SDS011;7383;52.354;9.756;2023-09-19T07:37:17;2.47;;;1.70;;
14592;SDS011;7383;52.354;9.756;2023-09-19T07:39:43;4.18;;;1.95;;
14592;SDS011;7383;52.354;9.756;2023-09-19T07:42:10;3.25;;;2.10;;
14592;SDS011;7383;52.354;9.756;2023-09-19T07:44:43;3.72;;;1.95;;
14592;SDS011;7383;52.354;9.756;2023-09-19T07:47:13;2.63;;;1.63;;
14592;SDS011;7383;52.354;9.756;2023-09-19T07:49:42;2.17;;;1.50;;
14592;SDS011;7383;52.354;9.756;2023-09-19T07:52:09;3.70;;;1.83;;
14592;SDS011;7383;52.354;9.756;2023-09-19T07:54:35;2.72;;;1.67;;
14592;SDS011;7383;52.354;9.756;2023-09-19T07:57:04;4.35;;;2.10;;
14592;SDS011;7383;52.354;9.756;2023-09-19T07:59:30;3.25;;;1.88;;
14592;SDS011;7383;52.354;9.756;2023-09-19T08:01:58;2.67;;;1.83;;
14592;SDS011;7383;52.354;9.756;2023-09-19T08:04:25;3.40;;;1.73;;
14592;SDS011;7383;52.354;9.756;2023-09-19T08:06:52;3.78;;;1.80;;
14592;SDS011;7383;52.354;9.756;2023-09-19T08:09:20;2.42;;;1.40;;
14592;SDS011;7383;52.354;9.756;2023-09-19T08:11:47;3.67;;;2.00;;
14592;SDS011;7383;52.354;9.756;2023-09-19T08:14:15;2.33;;;1.80;;
14592;SDS011;7383;52.354;9.756;2023-09-19T08:16:42;3.42;;;2.10;;
14592;SDS011;7383;52.354;9.756;2023-09-19T08:19:10;3.20;;;1.88;;
14592;SDS011;7383;52.354;9.756;2023-09-19T08:21:37;3.25;;;1.65;;
14592;SDS011;7383;52.354;9.756;2023-09-19T08:24:03;3.05;;;1.83;;
14592;SDS011;7383;52.354;9.756;2023-09-19T08:26:30;1.83;;;1.50;;
14592;SDS011;7383;52.354;9.756;2023-09-19T08:28:57;3.15;;;1.73;;
14592;SDS011;7383;52.354;9.756;2023-09-19T08:31:24;2.53;;;1.70;;
14592;SDS011;7383;52.354;9.756;2023-09-19T08:33:50;3.15;;;1.75;;
14592;SDS011;7383;52.354;9.756;2023-09-19T08:36:20;3.10;;;1.45;;
14592;SDS011;7383;52.354;9.756;2023-09-19T08:38:46;3.78;;;1.80;;
14592;SDS011;7383;52.354;9.756;2023-09-19T08:41:14;2.00;;;1.60;;
14592;SDS011;7383;52.354;9.756;2023-09-19T08:43:43;2.13;;;1.60;;
14592;SDS011;7383;52.354;9.756;2023-09-19T08:46:14;3.28;;;1.50;;
14592;SDS011;7383;52.354;9.756;2023-09-19T08:48:44;1.48;;;1.38;;
14592;SDS011;7383;52.354;9.756;2023-09-19T08:51:16;6.40;;;1.70;;
14592;SDS011;7383;52.354;9.756;2023-09-19T08:53:51;3.03;;;2.00;;
14592;SDS011;7383;52.354;9.756;2023-09-19T08:56:21;2.45;;;1.40;;
14592;SDS011;7383;52.354;9.756;2023-09-19T08:58:53;2.08;;;1.75;;
14592;SDS011;7383;52.354;9.756;2023-09-19T09:01:23;3.80;;;1.73;;
14592;SDS011;7383;52.354;9.756;2023-09-19T09:03:54;2.33;;;1.60;;
14592;SDS011;7383;52.354;9.756;2023-09-19T09:06:22;2.85;;;1.70;;
14592;SDS011;7383;52.354;9.756;2023-09-19T09:08:51;4.20;;;2.22;;
14592;SDS011;7383;52.354;9.756;2023-09-19T09:11:18;3.88;;;1.80;;
14592;SDS011;7383;52.354;9.756;2023-09-19T09:13:45;2.78;;;1.80;;
14592;SDS011;7383;52.354;9.756;2023-09-19T09:16:12;2.85;;;1.80;;
14592;SDS011;7383;52.354;9.756;2023-09-19T09:18:42;3.83;;;1.80;;
14592;SDS011;7383;52.354;9.756;2023-09-19T09:21:09;3.85;;;1.80;;
14592;SDS011;7383;52.354;9.756;2023-09-19T09:23:35;2.33;;;1.60;;
14592;SDS011;7383;52.354;9.756;2023-09-19T09:26:04;3.65;;;1.73;;
14592;SDS011;7383;52.354;9.756;2023-09-19T09:28:32;2.97;;;1.70;;
14592;SDS011;7383;52.354;9.756;2023-09-19T09:31:00;2.60;;;1.65;;
14592;SDS011;7383;52.354;9.756;2023-09-19T09:33:28;2.20;;;1.55;;
14592;SDS011;7383;52.354;9.756;2023-09-19T09:35:56;3.15;;;1.98;;
14592;SDS011;7383;52.354;9.756;2023-09-19T09:38:25;2.40;;;1.70;;
14592;SDS011;7383;52.354;9.756;2023-09-19T09:40:54;2.97;;;2.00;;
14592;SDS011;7383;52.354;9.756;2023-09-19T09:43:33;3.40;;;1.70;;
14592;SDS011;7383;52.354;9.756;2023-09-19T09:46:08;3.00;;;1.80;;
14592;SDS011;7383;52.354;9.756;2023-09-19T09:49:05;3.55;;;1.90;;
14592;SDS011;7383;52.354;9.756;2023-09-19T09:51:41;1.70;;;1.50;;
14592;SDS011;7383;52.354;9.756;2023-09-19T09:54:11;2.72;;;1.67;;
14592;SDS011;7383;52.354;9.756;2023-09-19T09:56:51;2.95;;;1.70;;
14592;SDS011;7383;52.354;9.756;2023-09-19T09:59:20;3.03;;;1.40;;
14592;SDS011;7383;52.354;9.756;2023-09-19T10:01:49;6.35;;;1.50;;
14592;SDS011;7383;52.354;9.756;2023-09-19T10:04:26;2.90;;;1.60;;
14592;SDS011;7383;52.354;9.756;2023-09-19T10:06:55;3.03;;;1.80;;
14592;SDS011;7383;52.354;9.756;2023-09-19T10:09:22;2.97;;;1.63;;
14592;SDS011;7383;52.354;9.756;2023-09-19T10:12:03;1.75;;;1.45;;
14592;SDS011;7383;52.354;9.756;2023-09-19T10:14:35;3.45;;;1.80;;
14592;SDS011;7383;52.354;9.756;2023-09-19T10:17:04;3.65;;;1.98;;
14592;SDS011;7383;52.354;9.756;2023-09-19T10:19:37;2.72;;;1.92;;
14592;SDS011;7383;52.354;9.756;2023-09-19T10:22:11;2.05;;;1.75;;
14592;SDS011;7383;52.354;9.756;2023-09-19T10:24:41;2.28;;;1.90;;
14592;SDS011;7383;52.354;9.756;2023-09-19T10:27:09;3.25;;;1.80;;
14592;SDS011;7383;52.354;9.756;2023-09-19T10:29:38;2.25;;;1.65;;
14592;SDS011;7383;52.354;9.756;2023-09-19T10:32:05;3.10;;;2.22;;
14592;SDS011;7383;52.354;9.756;2023-09-19T10:34:34;3.65;;;1.88;;
14592;SDS011;7383;52.354;9.756;2023-09-19T10:37:02;3.92;;;1.92;;
14592;SDS011;7383;52.354;9.756;2023-09-19T10:39:31;2.10;;;1.63;;
14592;SDS011;7383;52.354;9.756;2023-09-19T10:42:01;2.45;;;1.80;;
14592;SDS011;7383;52.354;9.756;2023-09-19T10:44:31;2.17;;;1.63;;
14592;SDS011;7383;52.354;9.756;2023-09-19T10:47:00;2.70;;;1.70;;
14592;SDS011;7383;52.354;9.756;2023-09-19T10:49:31;4.13;;;2.13;;
14592;SDS011;7383;52.354;9.756;2023-09-19T10:51:58;2.42;;;1.67;;
14592;SDS011;7383;52.354;9.756;2023-09-19T10:54:28;3.58;;;1.60;;
14592;SDS011;7383;52.354;9.756;2023-09-19T10:57:02;4.30;;;2.03;;
14592;SDS011;7383;52.354;9.756;2023-09-19T10:59:30;4.10;;;2.08;;
14592;SDS011;7383;52.354;9.756;2023-09-19T11:02:15;3.22;;;1.90;;
14592;SDS011;7383;52.354;9.756;2023-09-19T11:04:43;4.25;;;2.38;;
14592;SDS011;7383;52.354;9.756;2023-09-19T11:07:13;3.00;;;2.05;;
14592;SDS011;7383;52.354;9.756;2023-09-19T11:09:44;2.40;;;1.90;;
14592;SDS011;7383;52.354;9.756;2023-09-19T11:21:38;3.45;;;2.00;;
14592;SDS011;7383;52.354;9.756;2023-09-19T11:27:14;3.70;;;2.47;;
14592;SDS011;7383;52.354;9.756;2023-09-19T11:29:42;3.08;;;1.83;;
14592;SDS011;7383;52.354;9.756;2023-09-19T11:32:09;2.30;;;1.63;;
14592;SDS011;7383;52.354;9.756;2023-09-19T11:34:47;2.50;;;1.80;;
14592;SDS011;7383;52.354;9.756;2023-09-19T11:40:36;2.45;;;1.65;;
14592;SDS011;7383;52.354;9.756;2023-09-19T11:46:04;3.53;;;2.10;;
14592;SDS011;7383;52.354;9.756;2023-09-19T11:48:40;2.22;;;1.80;;
14592;SDS011;7383;52.354;9.756;2023-09-19T11:51:11;2.65;;;2.05;;
14592;SDS011;7383;52.354;9.756;2023-09-19T11:53:44;2.53;;;1.85;;
14592;SDS011;7383;52.354;9.756;2023-09-19T11:56:13;2.75;;;1.60;;
14592;SDS011;7383;52.354;9.756;2023-09-19T11:58:42;2.60;;;1.70;;
14592;SDS011;7383;52.354;9.756;2023-09-19T12:01:11;2.55;;;1.60;;
14592;SDS011;7383;52.354;9.756;2023-09-19T12:03:40;2.28;;;1.50;;
14592;SDS011;7383;52.354;9.756;2023-09-19T12:06:14;2.35;;;1.60;;
14592;SDS011;7383;52.354;9.756;2023-09-19T12:08:42;3.08;;;1.88;;
14592;SDS011;7383;52.354;9.756;2023-09-19T12:11:12;2.47;;;1.80;;
14592;SDS011;7383;52.354;9.756;2023-09-19T12:13:41;2.20;;;1.75;;
14592;SDS011;7383;52.354;9.756;2023-09-19T12:16:13;2.97;;;1.92;;
14592;SDS011;7383;52.354;9.756;2023-09-19T12:18:41;4.47;;;2.33;;
14592;SDS011;7383;52.354;9.756;2023-09-19T12:21:21;3.38;;;1.80;;
14592;SDS011;7383;52.354;9.756;2023-09-19T12:26:39;3.80;;;2.38;;
14592;SDS011;7383;52.354;9.756;2023-09-19T12:29:10;1.73;;;1.60;;
14592;SDS011;7383;52.354;9.756;2023-09-19T12:31:46;3.13;;;1.85;;
14592;SDS011;7383;52.354;9.756;2023-09-19T12:34:19;2.33;;;1.67;;
14592;SDS011;7383;52.354;9.756;2023-09-19T12:36:47;2.60;;;1.80;;
14592;SDS011;7383;52.354;9.756;2023-09-19T12:39:24;2.55;;;1.70;;
14592;SDS011;7383;52.354;9.756;2023-09-19T12:41:51;2.47;;;1.75;;
14592;SDS011;7383;52.354;9.756;2023-09-19T12:44:19;1.88;;;1.55;;
14592;SDS011;7383;52.354;9.756;2023-09-19T12:46:46;1.95;;;1.80;;
14592;SDS011;7383;52.354;9.756;2023-09-19T12:49:16;3.17;;;1.90;;
14592;SDS011;7383;52.354;9.756;2023-09-19T12:51:43;2.22;;;1.90;;
14592;SDS011;7383;52.354;9.756;2023-09-19T12:54:12;3.53;;;2.35;;
14592;SDS011;7383;52.354;9.756;2023-09-19T12:56:41;3.67;;;2.00;;
14592;SDS011;7383;52.354;9.756;2023-09-19T12:59:09;2.70;;;2.00;;
14592;SDS011;7383;52.354;9.756;2023-09-19T13:01:38;3.22;;;2.05;;
14592;SDS011;7383;52.354;9.756;2023-09-19T13:04:14;2.08;;;1.90;;
14592;SDS011;7383;52.354;9.756;2023-09-19T13:06:44;2.00;;;1.70;;
14592;SDS011;7383;52.354;9.756;2023-09-19T13:09:15;3.53;;;2.15;;
14592;SDS011;7383;52.354;9.756;2023-09-19T13:11:42;3.17;;;2.00;;
14592;SDS011;7383;52.354;9.756;2023-09-19T13:14:13;1.55;;;1.45;;
14592;SDS011;7383;52.354;9.756;2023-09-19T13:16:54;2.42;;;1.80;;
14592;SDS011;7383;52.354;9.756;2023-09-19T13:19:38;1.98;;;1.55;;
14592;SDS011;7383;52.354;9.756;2023-09-19T13:25:04;2.25;;;2.03;;
14592;SDS011;7383;52.354;9.756;2023-09-19T13:27:33;2.47;;;2.03;;
14592;SDS011;7383;52.354;9.756;2023-09-19T13:29:59;2.30;;;2.05;;
14592;SDS011;7383;52.354;9.756;2023-09-19T13:32:26;2.00;;;1.75;;
14592;SDS011;7383;52.354;9.756;2023-09-19T13:34:52;3.05;;;1.90;;
14592;SDS011;7383;52.354;9.756;2023-09-19T13:37:19;2.60;;;2.00;;
14592;SDS011;7383;52.354;9.756;2023-09-19T13:39:46;2.10;;;1.90;;
14592;SDS011;7383;52.354;9.756;2023-09-19T13:42:14;1.92;;;1.67;;
14592;SDS011;7383;52.354;9.756;2023-09-19T13:44:43;2.10;;;1.90;;
14592;SDS011;7383;52.354;9.756;2023-09-19T13:47:10;2.55;;;2.03;;
14592;SDS011;7383;52.354;9.756;2023-09-19T13:49:38;2.30;;;1.98;;
14592;SDS011;7383;52.354;9.756;2023-09-19T13:52:05;3.30;;;1.95;;
14592;SDS011;7383;52.354;9.756;2023-09-19T13:54:32;3.35;;;2.00;;
14592;SDS011;7383;52.354;9.756;2023-09-19T13:56:59;2.60;;;1.80;;
14592;SDS011;7383;52.354;9.756;2023-09-19T13:59:27;2.35;;;1.85;;
14592;SDS011;7383;52.354;9.756;2023-09-19T14:01:53;2.30;;;2.10;;
14592;SDS011;7383;52.354;9.756;2023-09-19T14:04:20;3.25;;;2.00;;
14592;SDS011;7383;52.354;9.756;2023-09-19T14:06:47;2.05;;;1.90;;
14592;SDS011;7383;52.354;9.756;2023-09-19T14:09:13;2.47;;;2.00;;
14592;SDS011;7383;52.354;9.756;2023-09-19T14:11:44;2.30;;;2.00;;
14592;SDS011;7383;52.354;9.756;2023-09-19T14:14:12;3.30;;;2.38;;
14592;SDS011;7383;52.354;9.756;2023-09-19T14:16:40;2.28;;;1.80;;
14592;SDS011;7383;52.354;9.756;2023-09-19T14:19:06;2.72;;;1.80;;
14592;SDS011;7383;52.354;9.756;2023-09-19T14:21:33;4.00;;;1.90;;
14592;SDS011;7383;52.354;9.756;2023-09-19T14:24:01;2.45;;;1.92;;
14592;SDS011;7383;52.354;9.756;2023-09-19T14:26:28;2.83;;;2.00;;
14592;SDS011;7383;52.354;9.756;2023-09-19T14:28:55;2.80;;;1.83;;
14592;SDS011;7383;52.354;9.756;2023-09-19T14:31:22;3.28;;;2.10;;
14592;SDS011;7383;52.354;9.756;2023-09-19T14:33:54;1.92;;;1.70;;
14592;SDS011;7383;52.354;9.756;2023-09-19T14:36:24;3.03;;;2.08;;
14592;SDS011;7383;52.354;9.756;2023-09-19T14:38:52;2.35;;;1.80;;
14592;SDS011;7383;52.354;9.756;2023-09-19T14:41:20;1.75;;;1.65;;
14592;SDS011;7383;52.354;9.756;2023-09-19T14:43:47;2.08;;;1.83;;
14592;SDS011;7383;52.354;9.756;2023-09-19T14:46:15;2.50;;;1.92;;
14592;SDS011;7383;52.354;9.756;2023-09-19T14:48:41;2.17;;;2.00;;
14592;SDS011;7383;52.354;9.756;2023-09-19T14:51:09;2.30;;;2.10;;
14592;SDS011;7383;52.354;9.756;2023-09-19T14:53:37;1.90;;;1.80;;
14592;SDS011;7383;52.354;9.756;2023-09-19T14:56:04;1.90;;;1.70;;
14592;SDS011;7383;52.354;9.756;2023-09-19T14:58:32;2.22;;;1.90;;
14592;SDS011;7383;52.354;9.756;2023-09-19T15:01:03;2.00;;;1.70;;
14592;SDS011;7383;52.354;9.756;2023-09-19T15:03:31;2.38;;;1.92;;
14592;SDS011;7383;52.354;9.756;2023-09-19T15:05:59;1.73;;;1.63;;
14592;SDS011;7383;52.354;9.756;2023-09-19T15:08:28;2.13;;;1.73;;
14592;SDS011;7383;52.354;9.756;2023-09-19T15:10:54;2.28;;;1.67;;
14592;SDS011;7383;52.354;9.756;2023-09-19T15:13:23;3.35;;;2.00;;
14592;SDS011;7383;52.354;9.756;2023-09-19T15:15:53;1.80;;;1.60;;
14592;SDS011;7383;52.354;9.756;2023-09-19T15:18:24;2.75;;;1.70;;
14592;SDS011;7383;52.354;9.756;2023-09-19T15:20:51;1.77;;;1.60;;
14592;SDS011;7383;52.354;9.756;2023-09-19T15:23:18;3.65;;;1.60;;
14592;SDS011;7383;52.354;9.756;2023-09-19T15:25:48;2.13;;;1.40;;
14592;SDS011;7383;52.354;9.756;2023-09-19T15:28:15;2.35;;;1.88;;
14592;SDS011;7383;52.354;9.756;2023-09-19T15:30:42;2.33;;;1.60;;
14592;SDS011;7383;52.354;9.756;2023-09-19T15:33:08;2.90;;;1.60;;
14592;SDS011;7383;52.354;9.756;2023-09-19T15:35:35;3.75;;;1.75;;
14592;SDS011;7383;52.354;9.756;2023-09-19T15:38:02;2.83;;;2.20;;